sensor_id;sensor_type;location;lat;lon;timestamp;pressure;altitude;pressure_sealevel;temperature;humidity
35918;BME280;22011;59.912;30.300;2022-12-18T00:00:00;102548.09;;;-3.47;62.91
35918;BME280;22011;59.912;30.300;2022-12-18T00:02:28;102557.72;;;-3.51;63.17
35918;BME280;22011;59.912;30.300;2022-12-18T00:04:57;102563.75;;;-3.49;62.96
35918;BME280;22011;59.912;30.300;2022-12-18T00:07:24;102562.06;;;-3.51;64.24
35918;BME280;22011;59.912;30.300;2022-12-18T00:09:52;102567.38;;;-3.56;64.96
35918;BME280;22011;59.912;30.300;2022-12-18T00:12:19;102559.53;;;-3.54;64.11
35918;BME280;22011;59.912;30.300;2022-12-18T00:14:47;102564.72;;;-3.54;63.61
35918;BME280;22011;59.912;30.300;2022-12-18T00:17:15;102562.19;;;-3.57;64.56
35918;BME280;22011;59.912;30.300;2022-12-18T00:19:42;102563.09;;;-3.60;64.16
35918;BME280;22011;59.912;30.300;2022-12-18T00:22:11;102565.75;;;-3.62;64.80
35918;BME280;22011;59.912;30.300;2022-12-18T00:24:38;102558.13;;;-3.72;64.66
35918;BME280;22011;59.912;30.300;2022-12-18T00:27:06;102552.91;;;-3.71;64.32
35918;BME280;22011;59.912;30.300;2022-12-18T00:29:34;102556.34;;;-3.69;64.60
35918;BME280;22011;59.912;30.300;2022-12-18T00:32:01;102545.03;;;-3.68;64.89
35918;BME280;22011;59.912;30.300;2022-12-18T00:34:29;102545.03;;;-3.68;65.06
35918;BME280;22011;59.912;30.300;2022-12-18T00:36:57;102545.03;;;-3.68;64.33
35918;BME280;22011;59.912;30.300;2022-12-18T00:39:26;102542.38;;;-3.66;65.06
35918;BME280;22011;59.912;30.300;2022-12-18T00:41:53;102542.41;;;-3.68;64.42
35918;BME280;22011;59.912;30.300;2022-12-18T00:44:38;102545.84;;;-3.66;65.08
35918;BME280;22011;59.912;30.300;2022-12-18T00:47:06;102538.97;;;-3.68;65.18
35918;BME280;22011;59.912;30.300;2022-12-18T00:49:34;102543.25;;;-3.66;65.52
35918;BME280;22011;59.912;30.300;2022-12-18T00:52:01;102541.50;;;-3.65;65.37
35918;BME280;22011;59.912;30.300;2022-12-18T00:54:30;102532.69;;;-3.59;64.39
35918;BME280;22011;59.912;30.300;2022-12-18T00:56:58;102536.13;;;-3.57;63.68
35918;BME280;22011;59.912;30.300;2022-12-18T00:59:25;102535.25;;;-3.56;63.65
35918;BME280;22011;59.912;30.300;2022-12-18T01:01:53;102528.34;;;-3.59;64.26
35918;BME280;22011;59.912;30.300;2022-12-18T01:04:20;102531.03;;;-3.64;65.30
35918;BME280;22011;59.912;30.300;2022-12-18T01:06:48;102525.91;;;-3.67;66.19
35918;BME280;22011;59.912;30.300;2022-12-18T01:09:15;102526.72;;;-3.65;64.27
35918;BME280;22011;59.912;30.300;2022-12-18T01:11:44;102531.97;;;-3.66;64.63
35918;BME280;22011;59.912;30.300;2022-12-18T01:14:12;102534.78;;;-3.77;65.07
35918;BME280;22011;59.912;30.300;2022-12-18T01:16:42;102528.63;;;-3.73;65.94
35918;BME280;22011;59.912;30.300;2022-12-18T01:19:10;102531.19;;;-3.71;65.52
35918;BME280;22011;59.912;30.300;2022-12-18T01:21:38;102527.63;;;-3.66;65.80
35918;BME280;22011;59.912;30.300;2022-12-18T01:24:05;102527.63;;;-3.66;66.58
35918;BME280;22011;59.912;30.300;2022-12-18T01:26:33;102518.16;;;-3.70;66.77
35918;BME280;22011;59.912;30.300;2022-12-18T01:29:02;102511.16;;;-3.68;67.39
35918;BME280;22011;59.912;30.300;2022-12-18T01:31:32;102515.47;;;-3.67;67.96
35918;BME280;22011;59.912;30.300;2022-12-18T01:34:03;102515.44;;;-3.65;67.42
35918;BME280;22011;59.912;30.300;2022-12-18T01:36:32;102521.56;;;-3.66;66.81
35918;BME280;22011;59.912;30.300;2022-12-18T01:39:01;102518.13;;;-3.68;67.08
35918;BME280;22011;59.912;30.300;2022-12-18T01:41:30;102510.41;;;-3.73;67.35
35918;BME280;22011;59.912;30.300;2022-12-18T01:47:27;102516.44;;;-3.71;67.77
35918;BME280;22011;59.912;30.300;2022-12-18T01:49:58;102513.88;;;-3.74;66.85
35918;BME280;22011;59.912;30.300;2022-12-18T01:52:29;102521.63;;;-3.71;66.63
35918;BME280;22011;59.912;30.300;2022-12-18T01:54:58;102527.69;;;-3.69;66.73
35918;BME280;22011;59.912;30.300;2022-12-18T01:57:28;102524.13;;;-3.65;66.20
35918;BME280;22011;59.912;30.300;2022-12-18T02:00:00;102522.38;;;-3.64;66.08
35918;BME280;22011;59.912;30.300;2022-12-18T02:02:40;102522.47;;;-3.69;66.35
35918;BME280;22011;59.912;30.300;2022-12-18T02:05:10;102528.53;;;-3.68;65.78
35918;BME280;22011;59.912;30.300;2022-12-18T02:07:43;102520.56;;;-3.60;66.68
35918;BME280;22011;59.912;30.300;2022-12-18T02:10:16;102515.41;;;-3.64;66.97
35918;BME280;22011;59.912;30.300;2022-12-18T02:12:51;102519.75;;;-3.63;67.02
35918;BME280;22011;59.912;30.300;2022-12-18T02:15:26;102516.22;;;-3.60;67.59
35918;BME280;22011;59.912;30.300;2022-12-18T02:18:03;102513.56;;;-3.58;68.02
35918;BME280;22011;59.912;30.300;2022-12-18T02:20:35;102513.69;;;-3.65;68.38
35918;BME280;22011;59.912;30.300;2022-12-18T02:23:11;102512.78;;;-3.62;68.25
35918;BME280;22011;59.912;30.300;2022-12-18T02:26:04;102506.53;;;-3.53;67.92
35918;BME280;22011;59.912;30.300;2022-12-18T02:28:36;102509.38;;;-3.66;66.65
35918;BME280;22011;59.912;30.300;2022-12-18T02:31:10;102497.22;;;-3.65;66.54
35918;BME280;22011;59.912;30.300;2022-12-18T02:33:40;102507.69;;;-3.68;65.94
35918;BME280;22011;59.912;30.300;2022-12-18T02:36:10;102503.41;;;-3.71;65.84
35918;BME280;22011;59.912;30.300;2022-12-18T02:38:38;102502.59;;;-3.73;65.59
35918;BME280;22011;59.912;30.300;2022-12-18T02:41:14;102499.00;;;-3.67;66.16
35918;BME280;22011;59.912;30.300;2022-12-18T02:43:46;102499.78;;;-3.64;66.68
35918;BME280;22011;59.912;30.300;2022-12-18T02:46:28;102490.94;;;-3.56;67.53
35918;BME280;22011;59.912;30.300;2022-12-18T02:49:12;102500.56;;;-3.58;67.88
35918;BME280;22011;59.912;30.300;2022-12-18T02:51:50;102499.78;;;-3.64;68.31
35918;BME280;22011;59.912;30.300;2022-12-18T02:54:45;102505.81;;;-3.62;68.78
35918;BME280;22011;59.912;30.300;2022-12-18T02:57:23;102504.25;;;-3.70;69.21
35918;BME280;22011;59.912;30.300;2022-12-18T02:59:57;102499.03;;;-3.69;70.07
35918;BME280;22011;59.912;30.300;2022-12-18T03:02:31;102506.84;;;-3.69;69.83
35918;BME280;22011;59.912;30.300;2022-12-18T03:05:05;102500.69;;;-3.65;69.95
35918;BME280;22011;59.912;30.300;2022-12-18T03:07:38;102504.22;;;-3.69;69.55
35918;BME280;22011;59.912;30.300;2022-12-18T03:10:14;102499.13;;;-3.73;70.08
35918;BME280;22011;59.912;30.300;2022-12-18T03:12:50;102505.22;;;-3.74;70.32
35918;BME280;22011;59.912;30.300;2022-12-18T03:15:23;102505.31;;;-3.79;70.34
35918;BME280;22011;59.912;30.300;2022-12-18T03:18:03;102502.72;;;-3.79;70.22
35918;BME280;22011;59.912;30.300;2022-12-18T03:20:34;102503.66;;;-3.83;70.20
35918;BME280;22011;59.912;30.300;2022-12-18T03:23:06;102502.81;;;-3.83;70.18
35918;BME280;22011;59.912;30.300;2022-12-18T03:25:38;102500.09;;;-3.79;69.68
35918;BME280;22011;59.912;30.300;2022-12-18T03:28:10;102501.66;;;-3.70;69.54
35918;BME280;22011;59.912;30.300;2022-12-18T03:30:41;102499.97;;;-3.73;68.61
35918;BME280;22011;59.912;30.300;2022-12-18T03:33:12;102503.34;;;-3.68;68.58
35918;BME280;22011;59.912;30.300;2022-12-18T03:35:46;102510.34;;;-3.70;68.61
35918;BME280;22011;59.912;30.300;2022-12-18T03:38:14;102503.34;;;-3.68;68.76
35918;BME280;22011;59.912;30.300;2022-12-18T03:40:52;102504.88;;;-3.57;68.77
35918;BME280;22011;59.912;30.300;2022-12-18T03:43:31;102509.19;;;-3.56;67.86
35918;BME280;22011;59.912;30.300;2022-12-18T03:46:05;102500.56;;;-3.58;67.78
35918;BME280;22011;59.912;30.300;2022-12-18T03:48:39;102510.16;;;-3.60;67.47
35918;BME280;22011;59.912;30.300;2022-12-18T03:51:16;102513.69;;;-3.65;67.55
35918;BME280;22011;59.912;30.300;2022-12-18T03:53:52;102518.06;;;-3.65;67.00
35918;BME280;22011;59.912;30.300;2022-12-18T03:56:32;102520.50;;;-3.57;67.52
35918;BME280;22011;59.912;30.300;2022-12-18T03:59:03;102513.69;;;-3.65;67.75
35918;BME280;22011;59.912;30.300;2022-12-18T04:01:34;102518.16;;;-3.70;68.30
35918;BME280;22011;59.912;30.300;2022-12-18T04:04:03;102517.41;;;-3.76;68.18
35918;BME280;22011;59.912;30.300;2022-12-18T04:06:35;102511.41;;;-3.80;68.44
35918;BME280;22011;59.912;30.300;2022-12-18T04:09:04;102502.69;;;-3.77;68.14
35918;BME280;22011;59.912;30.300;2022-12-18T04:11:35;102500.97;;;-3.78;68.09
35918;BME280;22011;59.912;30.300;2022-12-18T04:14:06;102501.69;;;-3.72;67.96
35918;BME280;22011;59.912;30.300;2022-12-18T04:16:34;102499.97;;;-3.73;68.07
35918;BME280;22011;59.912;30.300;2022-12-18T04:19:06;102493.88;;;-3.72;67.17
35918;BME280;22011;59.912;30.300;2022-12-18T04:21:39;102487.00;;;-3.76;66.81
35918;BME280;22011;59.912;30.300;2022-12-18T04:24:07;102492.31;;;-3.80;67.17
35918;BME280;22011;59.912;30.300;2022-12-18T04:26:37;102502.72;;;-3.80;67.66
35918;BME280;22011;59.912;30.300;2022-12-18T04:29:18;102496.50;;;-3.73;68.19
35918;BME280;22011;59.912;30.300;2022-12-18T04:31:47;102496.53;;;-3.75;67.95
35918;BME280;22011;59.912;30.300;2022-12-18T04:34:15;102489.63;;;-3.76;68.22
35918;BME280;22011;59.912;30.300;2022-12-18T04:36:49;102494.91;;;-3.79;67.65
35918;BME280;22011;59.912;30.300;2022-12-18T04:39:17;102511.41;;;-3.80;68.28
35918;BME280;22011;59.912;30.300;2022-12-18T04:41:45;102516.72;;;-3.84;67.99
35918;BME280;22011;59.912;30.300;2022-12-18T04:44:14;102511.59;;;-3.89;68.18
35918;BME280;22011;59.912;30.300;2022-12-18T04:46:43;102513.28;;;-3.86;69.01
35918;BME280;22011;59.912;30.300;2022-12-18T04:49:10;102510.75;;;-3.91;68.72
35918;BME280;22011;59.912;30.300;2022-12-18T04:51:38;102509.91;;;-3.91;68.84
35918;BME280;22011;59.912;30.300;2022-12-18T04:54:06;102511.69;;;-3.93;68.75
35918;BME280;22011;59.912;30.300;2022-12-18T04:56:33;102509.03;;;-3.92;68.94
35918;BME280;22011;59.912;30.300;2022-12-18T04:59:01;102507.28;;;-3.90;68.07
35918;BME280;22011;59.912;30.300;2022-12-18T05:01:28;102501.91;;;-3.82;67.36
35918;BME280;22011;59.912;30.300;2022-12-18T05:03:57;102501.97;;;-3.85;67.46
35918;BME280;22011;59.912;30.300;2022-12-18T05:06:24;102502.84;;;-3.86;67.51
35918;BME280;22011;59.912;30.300;2022-12-18T05:08:52;102502.81;;;-3.85;67.97
35918;BME280;22011;59.912;30.300;2022-12-18T05:11:19;102505.44;;;-3.85;68.40
35918;BME280;22011;59.912;30.300;2022-12-18T05:13:47;102501.97;;;-3.85;68.31
35918;BME280;22011;59.912;30.300;2022-12-18T05:16:15;102508.09;;;-3.88;68.37
35918;BME280;22011;59.912;30.300;2022-12-18T05:18:42;102505.59;;;-3.92;68.30
35918;BME280;22011;59.912;30.300;2022-12-18T05:21:11;102503.91;;;-3.95;68.35
35918;BME280;22011;59.912;30.300;2022-12-18T05:23:39;102511.94;;;-4.07;67.59
35918;BME280;22011;59.912;30.300;2022-12-18T05:26:07;102505.94;;;-4.11;68.28
35918;BME280;22011;59.912;30.300;2022-12-18T05:28:35;102508.50;;;-4.09;68.22
35918;BME280;22011;59.912;30.300;2022-12-18T05:31:04;102507.75;;;-4.14;67.93
35918;BME280;22011;59.912;30.300;2022-12-18T05:33:33;102500.06;;;-4.19;67.83
35918;BME280;22011;59.912;30.300;2022-12-18T05:36:02;102501.88;;;-4.24;68.05
35918;BME280;22011;59.912;30.300;2022-12-18T05:38:33;102497.53;;;-4.23;67.99
35918;BME280;22011;59.912;30.300;2022-12-18T05:41:01;102502.84;;;-4.30;67.86
35918;BME280;22011;59.912;30.300;2022-12-18T05:43:29;102509.78;;;-4.29;67.71
35918;BME280;22011;59.912;30.300;2022-12-18T05:45:56;102505.47;;;-4.31;67.86
35918;BME280;22011;59.912;30.300;2022-12-18T05:48:24;102500.41;;;-4.39;67.82
35918;BME280;22011;59.912;30.300;2022-12-18T05:50:52;102505.72;;;-4.45;68.34
35918;BME280;22011;59.912;30.300;2022-12-18T05:53:20;102511.78;;;-4.44;68.68
35918;BME280;22011;59.912;30.300;2022-12-18T05:55:48;102510.09;;;-4.47;68.85
35918;BME280;22011;59.912;30.300;2022-12-18T05:58:16;102514.50;;;-4.50;68.61
35918;BME280;22011;59.912;30.300;2022-12-18T06:00:45;102508.25;;;-4.40;68.45
35918;BME280;22011;59.912;30.300;2022-12-18T06:03:13;102515.19;;;-4.41;68.30
35918;BME280;22011;59.912;30.300;2022-12-18T06:05:43;102510.09;;;-4.47;68.16
35918;BME280;22011;59.912;30.300;2022-12-18T06:08:11;102512.41;;;-4.30;68.84
35918;BME280;22011;59.912;30.300;2022-12-18T06:10:39;102517.22;;;-4.58;67.64
35918;BME280;22011;59.912;30.300;2022-12-18T06:13:08;102515.56;;;-4.62;68.29
35918;BME280;22011;59.912;30.300;2022-12-18T06:15:36;102527.81;;;-4.70;68.36
35918;BME280;22011;59.912;30.300;2022-12-18T06:18:05;102533.13;;;-4.76;68.33
35918;BME280;22011;59.912;30.300;2022-12-18T06:20:34;102530.63;;;-4.82;68.41
35918;BME280;22011;59.912;30.300;2022-12-18T06:23:05;102529.75;;;-4.81;68.51
35918;BME280;22011;59.912;30.300;2022-12-18T06:25:33;102526.25;;;-4.80;68.36
35918;BME280;22011;59.912;30.300;2022-12-18T06:28:00;102524.59;;;-4.86;67.67
35918;BME280;22011;59.912;30.300;2022-12-18T06:30:29;102522.78;;;-4.79;67.65
35918;BME280;22011;59.912;30.300;2022-12-18T06:32:57;102521.09;;;-4.83;67.04
35918;BME280;22011;59.912;30.300;2022-12-18T06:35:25;102515.13;;;-4.90;67.13
35918;BME280;22011;59.912;30.300;2022-12-18T06:37:53;102510.84;;;-4.93;66.88
35918;BME280;22011;59.912;30.300;2022-12-18T06:40:20;102517.88;;;-4.99;66.88
35918;BME280;22011;59.912;30.300;2022-12-18T06:42:48;102518.81;;;-5.03;67.09
35918;BME280;22011;59.912;30.300;2022-12-18T06:45:15;102517.13;;;-5.06;67.35
35918;BME280;22011;59.912;30.300;2022-12-18T06:47:44;102512.84;;;-5.10;67.26
35918;BME280;22011;59.912;30.300;2022-12-18T06:50:12;102514.66;;;-5.15;67.48
35918;BME280;22011;59.912;30.300;2022-12-18T06:52:40;102516.50;;;-5.21;67.58
35918;BME280;22011;59.912;30.300;2022-12-18T06:55:08;102517.31;;;-5.19;68.17
35918;BME280;22011;59.912;30.300;2022-12-18T06:57:36;102506.13;;;-5.21;68.22
35918;BME280;22011;59.912;30.300;2022-12-18T07:00:06;102511.34;;;-5.24;67.91
35918;BME280;22011;59.912;30.300;2022-12-18T07:02:34;102513.13;;;-5.28;67.61
35918;BME280;22011;59.912;30.300;2022-12-18T07:05:03;102513.94;;;-5.24;67.70
35918;BME280;22011;59.912;30.300;2022-12-18T07:07:31;102511.38;;;-5.26;67.94
35918;BME280;22011;59.912;30.300;2022-12-18T07:09:58;102507.09;;;-5.29;67.22
35918;BME280;22011;59.912;30.300;2022-12-18T07:12:26;102512.25;;;-5.27;67.89
35918;BME280;22011;59.912;30.300;2022-12-18T07:14:54;102519.22;;;-5.31;68.45
35918;BME280;22011;59.912;30.300;2022-12-18T07:17:21;102509.75;;;-5.33;68.63
35918;BME280;22011;59.912;30.300;2022-12-18T07:19:49;102514.09;;;-5.35;68.59
35918;BME280;22011;59.912;30.300;2022-12-18T07:22:18;102513.25;;;-5.36;68.61
35918;BME280;22011;59.912;30.300;2022-12-18T07:24:45;102509.00;;;-5.43;68.54
35918;BME280;22011;59.912;30.300;2022-12-18T07:27:13;102512.56;;;-5.50;68.75
35918;BME280;22011;59.912;30.300;2022-12-18T07:29:40;102506.56;;;-5.53;69.36
35918;BME280;22011;59.912;30.300;2022-12-18T07:32:07;102515.31;;;-5.61;69.15
35918;BME280;22011;59.912;30.300;2022-12-18T07:34:35;102521.34;;;-5.60;69.44
35918;BME280;22011;59.912;30.300;2022-12-18T07:37:03;102522.22;;;-5.61;69.21
35918;BME280;22011;59.912;30.300;2022-12-18T07:39:32;102522.25;;;-5.63;69.06
35918;BME280;22011;59.912;30.300;2022-12-18T07:41:59;102529.22;;;-5.65;69.41
35918;BME280;22011;59.912;30.300;2022-12-18T07:44:44;102522.25;;;-5.63;69.18
35918;BME280;22011;59.912;30.300;2022-12-18T07:47:12;102523.88;;;-5.54;69.33
35918;BME280;22011;59.912;30.300;2022-12-18T07:49:39;102522.09;;;-5.50;69.40
35918;BME280;22011;59.912;30.300;2022-12-18T07:52:07;102516.91;;;-5.50;69.04
35918;BME280;22011;59.912;30.300;2022-12-18T07:54:36;102514.31;;;-5.52;69.38
35918;BME280;22011;59.912;30.300;2022-12-18T07:57:04;102512.66;;;-5.56;69.54
35918;BME280;22011;59.912;30.300;2022-12-18T07:59:32;102506.56;;;-5.55;69.79
35918;BME280;22011;59.912;30.300;2022-12-18T08:01:59;102510.84;;;-5.51;69.63
35918;BME280;22011;59.912;30.300;2022-12-18T08:04:27;102507.41;;;-5.53;69.12
35918;BME280;22011;59.912;30.300;2022-12-18T08:06:54;102490.19;;;-5.58;69.28
35918;BME280;22011;59.912;30.300;2022-12-18T08:09:22;102485.84;;;-5.58;69.42
35918;BME280;22011;59.912;30.300;2022-12-18T08:11:51;102475.41;;;-5.53;69.20
35918;BME280;22011;59.912;30.300;2022-12-18T08:14:18;102468.41;;;-5.48;68.58
35918;BME280;22011;59.912;30.300;2022-12-18T08:16:46;102464.84;;;-5.41;68.26
35918;BME280;22011;59.912;30.300;2022-12-18T08:19:14;102459.59;;;-5.38;68.39
35918;BME280;22011;59.912;30.300;2022-12-18T08:21:41;102457.84;;;-5.38;68.69
35918;BME280;22011;59.912;30.300;2022-12-18T08:24:09;102463.88;;;-5.34;68.51
35918;BME280;22011;59.912;30.300;2022-12-18T08:26:36;102458.72;;;-5.37;67.90
35918;BME280;22011;59.912;30.300;2022-12-18T08:29:05;102470.81;;;-5.36;67.07
35918;BME280;22011;59.912;30.300;2022-12-18T08:31:33;102475.97;;;-5.33;67.90
35918;BME280;22011;59.912;30.300;2022-12-18T08:34:00;102494.13;;;-5.32;68.33
35918;BME280;22011;59.912;30.300;2022-12-18T08:36:28;102499.34;;;-5.33;68.43
35918;BME280;22011;59.912;30.300;2022-12-18T08:38:56;102499.44;;;-5.39;68.11
35918;BME280;22011;59.912;30.300;2022-12-18T08:41:24;102492.59;;;-5.46;68.32
35918;BME280;22011;59.912;30.300;2022-12-18T08:43:52;102494.31;;;-5.44;68.77
35918;BME280;22011;59.912;30.300;2022-12-18T08:46:40;102492.50;;;-5.39;68.68
35918;BME280;22011;59.912;30.300;2022-12-18T08:49:09;102484.78;;;-5.43;68.64
35918;BME280;22011;59.912;30.300;2022-12-18T08:51:37;102490.84;;;-5.44;68.77
35918;BME280;22011;59.912;30.300;2022-12-18T08:54:05;102495.16;;;-5.42;67.48
35918;BME280;22011;59.912;30.300;2022-12-18T08:56:34;102491.66;;;-5.39;67.75
35918;BME280;22011;59.912;30.300;2022-12-18T08:59:02;102488.22;;;-5.41;68.17
35918;BME280;22011;59.912;30.300;2022-12-18T09:01:30;102483.06;;;-5.46;68.19
35918;BME280;22011;59.912;30.300;2022-12-18T09:03:59;102476.94;;;-5.40;68.51
35918;BME280;22011;59.912;30.300;2022-12-18T09:06:26;102470.81;;;-5.36;68.28
35918;BME280;22011;59.912;30.300;2022-12-18T09:08:54;102473.34;;;-5.32;68.02
35918;BME280;22011;59.912;30.300;2022-12-18T09:11:23;102462.88;;;-5.27;67.88
35918;BME280;22011;59.912;30.300;2022-12-18T09:13:51;102462.00;;;-5.26;67.57
35918;BME280;22011;59.912;30.300;2022-12-18T09:16:20;102456.84;;;-5.29;67.79
35918;BME280;22011;59.912;30.300;2022-12-18T09:18:48;102465.56;;;-5.32;67.54
35918;BME280;22011;59.912;30.300;2022-12-18T09:21:18;102459.41;;;-5.26;66.55
35918;BME280;22011;59.912;30.300;2022-12-18T09:23:49;102454.16;;;-5.23;66.95
35918;BME280;22011;59.912;30.300;2022-12-18T09:26:17;102447.31;;;-5.27;65.99
35918;BME280;22011;59.912;30.300;2022-12-18T09:28:44;102460.22;;;-5.22;65.51
35918;BME280;22011;59.912;30.300;2022-12-18T09:31:12;102464.56;;;-5.23;66.16
35918;BME280;22011;59.912;30.300;2022-12-18T09:33:40;102458.41;;;-5.19;65.79
35918;BME280;22011;59.912;30.300;2022-12-18T09:36:09;102462.63;;;-5.12;65.92
35918;BME280;22011;59.912;30.300;2022-12-18T09:38:39;102457.13;;;-4.94;66.73
35918;BME280;22011;59.912;30.300;2022-12-18T09:41:21;102452.09;;;-5.03;67.03
35918;BME280;22011;59.912;30.300;2022-12-18T09:43:52;102453.03;;;-5.07;67.29
35918;BME280;22011;59.912;30.300;2022-12-18T09:46:26;102453.81;;;-5.02;67.52
35918;BME280;22011;59.912;30.300;2022-12-18T09:48:58;102447.69;;;-4.99;66.45
35918;BME280;22011;59.912;30.300;2022-12-18T09:51:30;102439.78;;;-4.91;65.41
35918;BME280;22011;59.912;30.300;2022-12-18T09:54:04;102446.75;;;-4.94;65.23
35918;BME280;22011;59.912;30.300;2022-12-18T09:56:39;102445.03;;;-4.96;65.80
35918;BME280;22011;59.912;30.300;2022-12-18T09:59:18;102446.72;;;-4.92;65.85
35918;BME280;22011;59.912;30.300;2022-12-18T10:01:47;102440.78;;;-5.00;64.62
35918;BME280;22011;59.912;30.300;2022-12-18T10:04:15;102433.94;;;-5.06;64.78
35918;BME280;22011;59.912;30.300;2022-12-18T10:06:48;102440.81;;;-5.02;65.63
35918;BME280;22011;59.912;30.300;2022-12-18T10:09:27;102414.69;;;-4.94;65.45
35918;BME280;22011;59.912;30.300;2022-12-18T10:12:04;102417.22;;;-4.91;66.26
35918;BME280;22011;59.912;30.300;2022-12-18T10:14:42;102415.50;;;-4.90;66.68
35918;BME280;22011;59.912;30.300;2022-12-18T10:17:18;102415.47;;;-4.89;66.77
35918;BME280;22011;59.912;30.300;2022-12-18T10:19:52;102419.84;;;-4.91;66.80
35918;BME280;22011;59.912;30.300;2022-12-18T10:22:37;102415.34;;;-4.81;65.95
35918;BME280;22011;59.912;30.300;2022-12-18T10:25:18;102417.84;;;-4.77;66.13
35918;BME280;22011;59.912;30.300;2022-12-18T10:27:48;102414.50;;;-4.83;65.90
35918;BME280;22011;59.912;30.300;2022-12-18T10:30:21;102408.38;;;-4.79;66.45
35918;BME280;22011;59.912;30.300;2022-12-18T10:32:49;102404.03;;;-4.79;66.56
35918;BME280;22011;59.912;30.300;2022-12-18T10:35:18;102415.19;;;-4.74;66.55
35918;BME280;22011;59.912;30.300;2022-12-18T10:38:03;102420.31;;;-4.69;66.86
35918;BME280;22011;59.912;30.300;2022-12-18T10:40:49;102428.13;;;-4.69;66.82
35918;BME280;22011;59.912;30.300;2022-12-18T10:43:21;102429.13;;;-4.76;66.72
35918;BME280;22011;59.912;30.300;2022-12-18T10:46:05;102422.91;;;-4.69;66.81
35918;BME280;22011;59.912;30.300;2022-12-18T10:48:52;102421.31;;;-4.76;66.68
35918;BME280;22011;59.912;30.300;2022-12-18T10:51:22;102423.91;;;-4.76;66.47
35918;BME280;22011;59.912;30.300;2022-12-18T10:53:57;102427.25;;;-4.70;66.79
35918;BME280;22011;59.912;30.300;2022-12-18T10:56:30;102422.19;;;-4.77;65.92
35918;BME280;22011;59.912;30.300;2022-12-18T10:59:00;102422.97;;;-4.72;65.63
35918;BME280;22011;59.912;30.300;2022-12-18T11:01:45;102419.47;;;-4.70;65.95
35918;BME280;22011;59.912;30.300;2022-12-18T11:04:18;102423.81;;;-4.70;66.46
35918;BME280;22011;59.912;30.300;2022-12-18T11:06:57;102416.78;;;-4.65;66.61
35918;BME280;22011;59.912;30.300;2022-12-18T11:09:26;102407.47;;;-4.78;66.39
35918;BME280;22011;59.912;30.300;2022-12-18T11:11:57;102412.63;;;-4.75;66.21
35918;BME280;22011;59.912;30.300;2022-12-18T11:14:28;102408.25;;;-4.73;65.66
35918;BME280;22011;59.912;30.300;2022-12-18T11:16:58;102410.91;;;-4.76;66.41
35918;BME280;22011;59.912;30.300;2022-12-18T11:19:28;102408.88;;;-4.59;67.10
35918;BME280;22011;59.912;30.300;2022-12-18T11:21:57;102397.91;;;-4.76;65.87
35918;BME280;22011;59.912;30.300;2022-12-18T11:24:29;102398.72;;;-4.73;66.65
35918;BME280;22011;59.912;30.300;2022-12-18T11:27:01;102394.38;;;-4.72;66.89
35918;BME280;22011;59.912;30.300;2022-12-18T11:29:33;102387.41;;;-4.70;66.44
35918;BME280;22011;59.912;30.300;2022-12-18T11:32:27;102382.81;;;-4.57;66.96
35918;BME280;22011;59.912;30.300;2022-12-18T11:35:03;102373.38;;;-4.62;67.05
35918;BME280;22011;59.912;30.300;2022-12-18T11:37:32;102382.94;;;-4.64;67.09
35918;BME280;22011;59.912;30.300;2022-12-18T11:40:06;102381.25;;;-4.66;66.94
35918;BME280;22011;59.912;30.300;2022-12-18T11:42:39;102371.63;;;-4.61;67.06
35918;BME280;22011;59.912;30.300;2022-12-18T11:45:23;102364.63;;;-4.57;67.63
35918;BME280;22011;59.912;30.300;2022-12-18T11:47:56;102370.69;;;-4.57;68.00
35918;BME280;22011;59.912;30.300;2022-12-18T11:50:28;102356.00;;;-4.61;67.36
35918;BME280;22011;59.912;30.300;2022-12-18T11:52:56;102363.03;;;-4.66;67.72
35918;BME280;22011;59.912;30.300;2022-12-18T11:55:31;102358.50;;;-4.55;68.17
35918;BME280;22011;59.912;30.300;2022-12-18T11:58:09;102348.81;;;-4.48;68.36
35918;BME280;22011;59.912;30.300;2022-12-18T12:00:46;102343.63;;;-4.48;68.04
35918;BME280;22011;59.912;30.300;2022-12-18T12:03:27;102338.38;;;-4.45;68.32
35918;BME280;22011;59.912;30.300;2022-12-18T12:06:09;102338.41;;;-4.47;68.33
35918;BME280;22011;59.912;30.300;2022-12-18T12:09:00;102336.50;;;-4.39;68.80
35918;BME280;22011;59.912;30.300;2022-12-18T12:11:40;102334.72;;;-4.37;68.78
35918;BME280;22011;59.912;30.300;2022-12-18T12:14:25;102332.94;;;-4.35;68.97
35918;BME280;22011;59.912;30.300;2022-12-18T12:17:04;102331.25;;;-4.37;68.83
35918;BME280;22011;59.912;30.300;2022-12-18T12:19:41;102328.63;;;-4.36;68.92
35918;BME280;22011;59.912;30.300;2022-12-18T12:22:16;102333.88;;;-4.39;69.04
35918;BME280;22011;59.912;30.300;2022-12-18T12:24:54;102333.94;;;-4.40;69.20
35918;BME280;22011;59.912;30.300;2022-12-18T12:27:35;102329.53;;;-4.38;69.31
35918;BME280;22011;59.912;30.300;2022-12-18T12:30:09;102330.50;;;-4.42;69.42
35918;BME280;22011;59.912;30.300;2022-12-18T12:32:46;102329.53;;;-4.38;69.73
35918;BME280;22011;59.912;30.300;2022-12-18T12:35:26;102337.38;;;-4.40;69.42
35918;BME280;22011;59.912;30.300;2022-12-18T12:38:05;102339.09;;;-4.39;69.36
35918;BME280;22011;59.912;30.300;2022-12-18T12:40:36;102337.53;;;-4.47;69.30
35918;BME280;22011;59.912;30.300;2022-12-18T12:43:16;102341.81;;;-4.45;69.65
35918;BME280;22011;59.912;30.300;2022-12-18T12:45:51;102347.09;;;-4.48;69.81
35918;BME280;22011;59.912;30.300;2022-12-18T12:48:33;102340.94;;;-4.44;70.03
35918;BME280;22011;59.912;30.300;2022-12-18T12:51:04;102347.03;;;-4.45;69.71
35918;BME280;22011;59.912;30.300;2022-12-18T12:53:36;102340.03;;;-4.43;69.57
35918;BME280;22011;59.912;30.300;2022-12-18T12:56:04;102340.63;;;-4.29;70.20
35918;BME280;22011;59.912;30.300;2022-12-18T12:58:38;102347.03;;;-4.45;69.92
35918;BME280;22011;59.912;30.300;2022-12-18T13:01:17;102335.72;;;-4.44;70.12
35918;BME280;22011;59.912;30.300;2022-12-18T13:03:56;102340.94;;;-4.44;70.11